sensor_id;sensor_type;location;lat;lon;timestamp;temperature;humidity
16347;DHT22;8283;48.504;13.734;2023-04-01T00:00:59;13.60;67.80
16347;DHT22;8283;48.504;13.734;2023-04-01T00:03:44;13.60;67.90
16347;DHT22;8283;48.504;13.734;2023-04-01T00:06:28;13.60;67.90
16347;DHT22;8283;48.504;13.734;2023-04-01T00:09:13;13.60;67.90
16347;DHT22;8283;48.504;13.734;2023-04-01T00:11:58;13.60;67.80
16347;DHT22;8283;48.504;13.734;2023-04-01T00:14:43;13.60;67.90
16347;DHT22;8283;48.504;13.734;2023-04-01T00:17:28;13.60;67.90
16347;DHT22;8283;48.504;13.734;2023-04-01T00:20:12;13.60;67.90
16347;DHT22;8283;48.504;13.734;2023-04-01T00:22:58;13.60;67.90
16347;DHT22;8283;48.504;13.734;2023-04-01T00:25:43;13.60;67.80
16347;DHT22;8283;48.504;13.734;2023-04-01T00:28:28;13.60;67.80
16347;DHT22;8283;48.504;13.734;2023-04-01T00:31:14;13.60;67.80
16347;DHT22;8283;48.504;13.734;2023-04-01T00:33:58;13.60;67.70
16347;DHT22;8283;48.504;13.734;2023-04-01T00:36:43;13.60;67.70
16347;DHT22;8283;48.504;13.734;2023-04-01T00:39:31;13.60;67.70
16347;DHT22;8283;48.504;13.734;2023-04-01T00:42:16;13.60;68.20
16347;DHT22;8283;48.504;13.734;2023-04-01T00:45:35;13.50;67.80
16347;DHT22;8283;48.504;13.734;2023-04-01T00:48:23;13.50;69.70
16347;DHT22;8283;48.504;13.734;2023-04-01T00:51:14;13.50;68.20
16347;DHT22;8283;48.504;13.734;2023-04-01T00:54:00;13.50;68.30
16347;DHT22;8283;48.504;13.734;2023-04-01T00:57:00;13.50;68.20
16347;DHT22;8283;48.504;13.734;2023-04-01T00:59:50;13.50;69.10
16347;DHT22;8283;48.504;13.734;2023-04-01T01:02:37;13.60;68.90
16347;DHT22;8283;48.504;13.734;2023-04-01T01:05:32;13.50;68.50
16347;DHT22;8283;48.504;13.734;2023-04-01T01:08:44;13.60;69.10
16347;DHT22;8283;48.504;13.734;2023-04-01T01:11:35;13.60;69.70
16347;DHT22;8283;48.504;13.734;2023-04-01T01:14:50;13.60;69.30
16347;DHT22;8283;48.504;13.734;2023-04-01T01:23:49;12.90;68.30
16347;DHT22;8283;48.504;13.734;2023-04-01T01:27:01;13.60;68.10
16347;DHT22;8283;48.504;13.734;2023-04-01T01:35:54;13.60;69.30
16347;DHT22;8283;48.504;13.734;2023-04-01T01:38:40;13.60;68.20
16347;DHT22;8283;48.504;13.734;2023-04-01T01:41:26;13.50;68.00
16347;DHT22;8283;48.504;13.734;2023-04-01T01:44:13;13.50;68.20
16347;DHT22;8283;48.504;13.734;2023-04-01T01:46:59;13.50;68.20
16347;DHT22;8283;48.504;13.734;2023-04-01T01:49:45;13.50;68.00
16347;DHT22;8283;48.504;13.734;2023-04-01T01:52:30;13.50;68.20
16347;DHT22;8283;48.504;13.734;2023-04-01T01:55:30;13.50;68.20
16347;DHT22;8283;48.504;13.734;2023-04-01T02:01:16;13.50;68.90
16347;DHT22;8283;48.504;13.734;2023-04-01T02:04:02;13.50;68.80
16347;DHT22;8283;48.504;13.734;2023-04-01T02:07:00;13.50;68.30
16347;DHT22;8283;48.504;13.734;2023-04-01T02:09:46;13.50;69.00
16347;DHT22;8283;48.504;13.734;2023-04-01T02:12:33;13.50;68.30
16347;DHT22;8283;48.504;13.734;2023-04-01T02:15:20;13.50;68.40
16347;DHT22;8283;48.504;13.734;2023-04-01T02:18:07;13.50;68.50
16347;DHT22;8283;48.504;13.734;2023-04-01T02:20:52;13.50;68.30
16347;DHT22;8283;48.504;13.734;2023-04-01T02:23:38;13.50;68.40
16347;DHT22;8283;48.504;13.734;2023-04-01T02:26:23;13.50;68.40
16347;DHT22;8283;48.504;13.734;2023-04-01T02:29:10;13.50;68.50
16347;DHT22;8283;48.504;13.734;2023-04-01T02:31:56;13.50;68.50
16347;DHT22;8283;48.504;13.734;2023-04-01T02:34:42;13.50;68.30
16347;DHT22;8283;48.504;13.734;2023-04-01T02:37:27;13.50;68.40
16347;DHT22;8283;48.504;13.734;2023-04-01T02:40:13;13.50;68.40
16347;DHT22;8283;48.504;13.734;2023-04-01T02:42:58;13.40;68.40
16347;DHT22;8283;48.504;13.734;2023-04-01T02:45:43;13.40;68.20
16347;DHT22;8283;48.504;13.734;2023-04-01T02:48:29;13.40;68.40
16347;DHT22;8283;48.504;13.734;2023-04-01T02:51:13;13.40;68.40
16347;DHT22;8283;48.504;13.734;2023-04-01T02:53:58;13.40;68.50
16347;DHT22;8283;48.504;13.734;2023-04-01T02:56:43;13.40;68.60
16347;DHT22;8283;48.504;13.734;2023-04-01T02:59:28;13.40;68.60
16347;DHT22;8283;48.504;13.734;2023-04-01T03:02:12;13.40;68.60
16347;DHT22;8283;48.504;13.734;2023-04-01T03:04:57;13.40;68.60
16347;DHT22;8283;48.504;13.734;2023-04-01T03:07:41;13.40;68.60
16347;DHT22;8283;48.504;13.734;2023-04-01T03:10:25;13.40;68.60
16347;DHT22;8283;48.504;13.734;2023-04-01T03:13:09;13.40;68.60
16347;DHT22;8283;48.504;13.734;2023-04-01T03:15:54;13.40;68.60
16347;DHT22;8283;48.504;13.734;2023-04-01T03:18:38;13.40;68.60
16347;DHT22;8283;48.504;13.734;2023-04-01T03:21:23;13.40;68.70
16347;DHT22;8283;48.504;13.734;2023-04-01T03:24:08;13.40;68.80
16347;DHT22;8283;48.504;13.734;2023-04-01T03:26:53;13.40;68.60
16347;DHT22;8283;48.504;13.734;2023-04-01T03:29:38;13.40;68.60
16347;DHT22;8283;48.504;13.734;2023-04-01T03:32:22;13.40;68.60
16347;DHT22;8283;48.504;13.734;2023-04-01T03:35:07;13.30;68.40
16347;DHT22;8283;48.504;13.734;2023-04-01T03:37:54;13.30;68.30
16347;DHT22;8283;48.504;13.734;2023-04-01T03:40:42;13.30;68.30
16347;DHT22;8283;48.504;13.734;2023-04-01T03:43:27;13.30;68.70
16347;DHT22;8283;48.504;13.734;2023-04-01T03:46:16;13.30;68.40
16347;DHT22;8283;48.504;13.734;2023-04-01T03:49:00;13.30;68.40
16347;DHT22;8283;48.504;13.734;2023-04-01T03:51:45;13.20;68.40
16347;DHT22;8283;48.504;13.734;2023-04-01T03:54:29;13.20;68.50
16347;DHT22;8283;48.504;13.734;2023-04-01T03:57:14;13.20;68.70
16347;DHT22;8283;48.504;13.734;2023-04-01T03:59:59;13.10;68.50
16347;DHT22;8283;48.504;13.734;2023-04-01T04:02:44;13.20;68.70
16347;DHT22;8283;48.504;13.734;2023-04-01T04:05:32;13.10;68.70
16347;DHT22;8283;48.504;13.734;2023-04-01T04:08:17;13.10;68.70
16347;DHT22;8283;48.504;13.734;2023-04-01T04:11:01;13.10;68.80
16347;DHT22;8283;48.504;13.734;2023-04-01T04:13:46;13.10;68.80
16347;DHT22;8283;48.504;13.734;2023-04-01T04:16:35;13.10;68.90
16347;DHT22;8283;48.504;13.734;2023-04-01T04:19:20;13.10;69.00
16347;DHT22;8283;48.504;13.734;2023-04-01T04:22:05;13.10;68.90
16347;DHT22;8283;48.504;13.734;2023-04-01T04:24:50;13.10;68.90
16347;DHT22;8283;48.504;13.734;2023-04-01T04:27:35;13.10;68.80
16347;DHT22;8283;48.504;13.734;2023-04-01T04:30:28;13.10;68.90
16347;DHT22;8283;48.504;13.734;2023-04-01T04:33:12;13.10;69.00
16347;DHT22;8283;48.504;13.734;2023-04-01T04:35:58;13.10;69.10
16347;DHT22;8283;48.504;13.734;2023-04-01T04:38:42;13.10;69.20
16347;DHT22;8283;48.504;13.734;2023-04-01T04:41:27;13.10;69.20
16347;DHT22;8283;48.504;13.734;2023-04-01T04:44:11;13.10;69.20
16347;DHT22;8283;48.504;13.734;2023-04-01T04:46:56;13.10;69.20
16347;DHT22;8283;48.504;13.734;2023-04-01T04:49:40;13.10;69.10
16347;DHT22;8283;48.504;13.734;2023-04-01T04:52:27;13.10;69.20
16347;DHT22;8283;48.504;13.734;2023-04-01T04:55:12;13.10;69.10
16347;DHT22;8283;48.504;13.734;2023-04-01T04:57:58;13.10;69.00
16347;DHT22;8283;48.504;13.734;2023-04-01T05:00:42;13.10;69.20
16347;DHT22;8283;48.504;13.734;2023-04-01T05:03:36;13.10;69.30
16347;DHT22;8283;48.504;13.734;2023-04-01T05:06:20;13.10;69.30
16347;DHT22;8283;48.504;13.734;2023-04-01T05:09:05;13.10;69.30
16347;DHT22;8283;48.504;13.734;2023-04-01T05:11:49;13.20;69.40
16347;DHT22;8283;48.504;13.734;2023-04-01T05:14:34;13.20;69.50
16347;DHT22;8283;48.504;13.734;2023-04-01T05:17:25;13.20;69.40
16347;DHT22;8283;48.504;13.734;2023-04-01T05:20:12;13.30;69.40
16347;DHT22;8283;48.504;13.734;2023-04-01T05:22:58;13.30;69.40
16347;DHT22;8283;48.504;13.734;2023-04-01T05:25:43;13.30;69.40
16347;DHT22;8283;48.504;13.734;2023-04-01T05:28:28;13.40;69.40
16347;DHT22;8283;48.504;13.734;2023-04-01T05:31:13;13.40;69.40
16347;DHT22;8283;48.504;13.734;2023-04-01T05:34:01;13.40;69.20
16347;DHT22;8283;48.504;13.734;2023-04-01T05:36:46;13.50;69.30
16347;DHT22;8283;48.504;13.734;2023-04-01T05:39:30;13.50;69.30
16347;DHT22;8283;48.504;13.734;2023-04-01T05:42:15;13.50;69.40
16347;DHT22;8283;48.504;13.734;2023-04-01T05:45:00;13.60;69.50
16347;DHT22;8283;48.504;13.734;2023-04-01T05:48:19;13.60;69.50
16347;DHT22;8283;48.504;13.734;2023-04-01T05:51:04;13.70;69.40
16347;DHT22;8283;48.504;13.734;2023-04-01T05:53:49;13.70;69.30
16347;DHT22;8283;48.504;13.734;2023-04-01T05:56:34;13.70;69.00
16347;DHT22;8283;48.504;13.734;2023-04-01T05:59:19;14.30;69.50
16347;DHT22;8283;48.504;13.734;2023-04-01T06:02:04;13.80;69.40
16347;DHT22;8283;48.504;13.734;2023-04-01T06:04:59;13.90;69.30
16347;DHT22;8283;48.504;13.734;2023-04-01T06:07:46;13.90;69.30
16347;DHT22;8283;48.504;13.734;2023-04-01T06:17:21;14.10;69.20
16347;DHT22;8283;48.504;13.734;2023-04-01T06:20:21;14.20;69.30
16347;DHT22;8283;48.504;13.734;2023-04-01T06:23:14;14.30;69.10
16347;DHT22;8283;48.504;13.734;2023-04-01T06:29:22;14.40;69.10
16347;DHT22;8283;48.504;13.734;2023-04-01T06:40:57;14.60;67.60
16347;DHT22;8283;48.504;13.734;2023-04-01T06:46:47;14.70;68.70
16347;DHT22;8283;48.504;13.734;2023-04-01T06:50:24;14.70;68.00
16347;DHT22;8283;48.504;13.734;2023-04-01T06:57:25;14.80;68.20
16347;DHT22;8283;48.504;13.734;2023-04-01T07:00:32;14.90;68.40
16347;DHT22;8283;48.504;13.734;2023-04-01T07:03:42;14.90;67.40
16347;DHT22;8283;48.504;13.734;2023-04-01T07:06:31;15.00;67.90
16347;DHT22;8283;48.504;13.734;2023-04-01T07:09:26;15.00;68.20
16347;DHT22;8283;48.504;13.734;2023-04-01T07:15:42;15.10;68.20
16347;DHT22;8283;48.504;13.734;2023-04-01T07:18:34;15.20;67.90
16347;DHT22;8283;48.504;13.734;2023-04-01T07:21:34;15.30;68.00
16347;DHT22;8283;48.504;13.734;2023-04-01T07:24:27;15.40;67.30
16347;DHT22;8283;48.504;13.734;2023-04-01T07:27:22;15.50;67.50
16347;DHT22;8283;48.504;13.734;2023-04-01T07:30:22;15.50;67.80
16347;DHT22;8283;48.504;13.734;2023-04-01T07:33:16;15.70;67.10
16347;DHT22;8283;48.504;13.734;2023-04-01T07:36:13;15.70;66.90
16347;DHT22;8283;48.504;13.734;2023-04-01T07:42:46;15.80;66.70
16347;DHT22;8283;48.504;13.734;2023-04-01T07:48:53;16.00;67.80
16347;DHT22;8283;48.504;13.734;2023-04-01T07:56:05;16.10;65.90
16347;DHT22;8283;48.504;13.734;2023-04-01T08:05:53;16.40;65.00
16347;DHT22;8283;48.504;13.734;2023-04-01T08:12:00;16.50;67.20
16347;DHT22;8283;48.504;13.734;2023-04-01T08:15:23;16.60;67.70
16347;DHT22;8283;48.504;13.734;2023-04-01T08:21:04;16.90;67.30
16347;DHT22;8283;48.504;13.734;2023-04-01T08:23:57;17.00;67.20
16347;DHT22;8283;48.504;13.734;2023-04-01T08:26:45;17.10;64.40
16347;DHT22;8283;48.504;13.734;2023-04-01T08:29:46;17.10;64.90
16347;DHT22;8283;48.504;13.734;2023-04-01T08:32:38;17.20;65.80
16347;DHT22;8283;48.504;13.734;2023-04-01T08:38:46;17.20;63.70
16347;DHT22;8283;48.504;13.734;2023-04-01T08:42:01;17.30;64.10
16347;DHT22;8283;48.504;13.734;2023-04-01T08:48:32;17.30;64.00
16347;DHT22;8283;48.504;13.734;2023-04-01T08:51:36;17.40;64.70
16347;DHT22;8283;48.504;13.734;2023-04-01T09:05:20;17.60;60.30
16347;DHT22;8283;48.504;13.734;2023-04-01T09:08:37;17.60;62.60
16347;DHT22;8283;48.504;13.734;2023-04-01T09:14:48;17.60;61.90
16347;DHT22;8283;48.504;13.734;2023-04-01T09:21:03;17.70;61.60
16347;DHT22;8283;48.504;13.734;2023-04-01T09:29:40;18.00;61.60
16347;DHT22;8283;48.504;13.734;2023-04-01T09:36:12;18.10;60.40
16347;DHT22;8283;48.504;13.734;2023-04-01T09:45:52;18.30;63.30
16347;DHT22;8283;48.504;13.734;2023-04-01T09:52:37;18.50;60.00
16347;DHT22;8283;48.504;13.734;2023-04-01T09:59:06;18.70;63.10
16347;DHT22;8283;48.504;13.734;2023-04-01T10:11:59;19.10;60.20
16347;DHT22;8283;48.504;13.734;2023-04-01T10:15:26;19.10;61.20
16347;DHT22;8283;48.504;13.734;2023-04-01T10:18:28;19.00;59.70
16347;DHT22;8283;48.504;13.734;2023-04-01T10:21:46;18.90;60.50
16347;DHT22;8283;48.504;13.734;2023-04-01T10:24:56;18.80;59.40
16347;DHT22;8283;48.504;13.734;2023-04-01T10:42:00;19.00;60.40
16347;DHT22;8283;48.504;13.734;2023-04-01T10:49:10;19.20;59.00
16347;DHT22;8283;48.504;13.734;2023-04-01T10:55:53;19.40;61.00
16347;DHT22;8283;48.504;13.734;2023-04-01T11:12:37;19.50;58.60
16347;DHT22;8283;48.504;13.734;2023-04-01T11:18:53;19.80;58.00
16347;DHT22;8283;48.504;13.734;2023-04-01T11:28:21;20.20;59.00
16347;DHT22;8283;48.504;13.734;2023-04-01T11:34:23;20.40;60.20
16347;DHT22;8283;48.504;13.734;2023-04-01T11:57:25;21.00;56.30
16347;DHT22;8283;48.504;13.734;2023-04-01T12:19:45;20.10;57.10
16347;DHT22;8283;48.504;13.734;2023-04-01T12:22:29;19.80;57.30
16347;DHT22;8283;48.504;13.734;2023-04-01T12:28:25;19.40;58.40
16347;DHT22;8283;48.504;13.734;2023-04-01T12:37:16;19.40;61.00
16347;DHT22;8283;48.504;13.734;2023-04-01T12:55:29;20.50;60.60
16347;DHT22;8283;48.504;13.734;2023-04-01T12:58:54;20.60;60.50
16347;DHT22;8283;48.504;13.734;2023-04-01T13:10:53;20.90;59.50
16347;DHT22;8283;48.504;13.734;2023-04-01T13:23:53;21.10;58.50
16347;DHT22;8283;48.504;13.734;2023-04-01T13:27:18;21.10;58.30
16347;DHT22;8283;48.504;13.734;2023-04-01T13:31:01;21.00;57.70
16347;DHT22;8283;48.504;13.734;2023-04-01T13:33:59;20.80;58.00
16347;DHT22;8283;48.504;13.734;2023-04-01T13:39:55;20.70;58.50
16347;DHT22;8283;48.504;13.734;2023-04-01T13:43:12;20.60;57.00
16347;DHT22;8283;48.504;13.734;2023-04-01T13:58:20;20.00;58.50
16347;DHT22;8283;48.504;13.734;2023-04-01T14:07:57;19.90;58.00
16347;DHT22;8283;48.504;13.734;2023-04-01T14:11:01;19.80;58.40
16347;DHT22;8283;48.504;13.734;2023-04-01T14:20:41;19.60;58.40
16347;DHT22;8283;48.504;13.734;2023-04-01T14:23:42;19.60;58.30
16347;DHT22;8283;48.504;13.734;2023-04-01T14:26:57;19.40;58.10
16347;DHT22;8283;48.504;13.734;2023-04-01T14:36:27;19.00;57.60
16347;DHT22;8283;48.504;13.734;2023-04-01T14:48:34;18.20;58.60
16347;DHT22;8283;48.504;13.734;2023-04-01T14:51:36;18.00;58.70
16347;DHT22;8283;48.504;13.734;2023-04-01T14:54:35;17.90;59.20
16347;DHT22;8283;48.504;13.734;2023-04-01T14:57:27;17.80;59.40
16347;DHT22;8283;48.504;13.734;2023-04-01T15:00:17;17.70;59.40
16347;DHT22;8283;48.504;13.734;2023-04-01T15:18:09;17.40;59.50
16347;DHT22;8283;48.504;13.734;2023-04-01T15:21:21;17.40;59.60
16347;DHT22;8283;48.504;13.734;2023-04-01T15:37:21;17.10;60.90
16347;DHT22;8283;48.504;13.734;2023-04-01T15:40:23;17.00;60.80
16347;DHT22;8283;48.504;13.734;2023-04-01T15:49:38;16.70;61.10
16347;DHT22;8283;48.504;13.734;2023-04-01T15:52:49;16.60;61.80
16347;DHT22;8283;48.504;13.734;2023-04-01T15:55:48;16.50;61.60
16347;DHT22;8283;48.504;13.734;2023-04-01T16:13:32;16.40;61.70
16347;DHT22;8283;48.504;13.734;2023-04-01T16:25:45;16.40;62.10
16347;DHT22;8283;48.504;13.734;2023-04-01T16:28:43;16.30;61.70
16347;DHT22;8283;48.504;13.734;2023-04-01T16:31:42;16.30;61.50
16347;DHT22;8283;48.504;13.734;2023-04-01T16:34:38;16.30;61.30
16347;DHT22;8283;48.504;13.734;2023-04-01T16:37:36;15.30;60.70
16347;DHT22;8283;48.504;13.734;2023-04-01T16:43:50;16.20;62.20
16347;DHT22;8283;48.504;13.734;2023-04-01T16:46:41;16.20;61.90
16347;DHT22;8283;48.504;13.734;2023-04-01T16:49:51;16.10;61.50
16347;DHT22;8283;48.504;13.734;2023-04-01T16:52:53;16.10;61.50
16347;DHT22;8283;48.504;13.734;2023-04-01T16:55:57;16.10;61.70
16347;DHT22;8283;48.504;13.734;2023-04-01T17:02:09;16.00;62.40
16347;DHT22;8283;48.504;13.734;2023-04-01T17:04:58;15.90;62.50
16347;DHT22;8283;48.504;13.734;2023-04-01T17:26:44;15.60;62.40
16347;DHT22;8283;48.504;13.734;2023-04-01T17:35:52;15.50;63.10
16347;DHT22;8283;48.504;13.734;2023-04-01T17:38:56;15.40;62.70
16347;DHT22;8283;48.504;13.734;2023-04-01T17:41:53;15.40;63.00
16347;DHT22;8283;48.504;13.734;2023-04-01T17:44:44;15.40;63.00
16347;DHT22;8283;48.504;13.734;2023-04-01T17:53:47;15.30;63.00
16347;DHT22;8283;48.504;13.734;2023-04-01T18:03:12;14.70;63.60
16347;DHT22;8283;48.504;13.734;2023-04-01T18:09:37;15.30;63.40
16347;DHT22;8283;48.504;13.734;2023-04-01T18:12:56;15.20;64.60
16347;DHT22;8283;48.504;13.734;2023-04-01T18:16:16;15.20;64.20
16347;DHT22;8283;48.504;13.734;2023-04-01T18:19:37;15.20;64.70
16347;DHT22;8283;48.504;13.734;2023-04-01T18:22:29;15.20;64.70
16347;DHT22;8283;48.504;13.734;2023-04-01T18:25:41;15.10;63.60
16347;DHT22;8283;48.504;13.734;2023-04-01T18:28:38;15.10;64.90
16347;DHT22;8283;48.504;13.734;2023-04-01T18:31:34;15.10;64.40
16347;DHT22;8283;48.504;13.734;2023-04-01T18:37:42;15.10;65.30
16347;DHT22;8283;48.504;13.734;2023-04-01T18:40:35;15.00;64.00
16347;DHT22;8283;48.504;13.734;2023-04-01T18:43:22;15.00;64.20
16347;DHT22;8283;48.504;13.734;2023-04-01T18:49:27;14.90;64.60
16347;DHT22;8283;48.504;13.734;2023-04-01T18:57:51;14.90;64.40
16347;DHT22;8283;48.504;13.734;2023-04-01T19:00:44;14.90;64.30
16347;DHT22;8283;48.504;13.734;2023-04-01T19:06:48;14.80;65.20
16347;DHT22;8283;48.504;13.734;2023-04-01T19:09:47;14.80;64.60
16347;DHT22;8283;48.504;13.734;2023-04-01T19:21:37;14.80;65.20
16347;DHT22;8283;48.504;13.734;2023-04-01T19:24:25;14.80;65.40
16347;DHT22;8283;48.504;13.734;2023-04-01T19:27:35;14.80;64.50
16347;DHT22;8283;48.504;13.734;2023-04-01T19:37:25;15.20;66.30
16347;DHT22;8283;48.504;13.734;2023-04-01T19:44:03;14.80;66.10
16347;DHT22;8283;48.504;13.734;2023-04-01T19:47:02;14.70;65.60
16347;DHT22;8283;48.504;13.734;2023-04-01T19:53:15;14.70;65.70
16347;DHT22;8283;48.504;13.734;2023-04-01T19:56:13;14.60;65.40
16347;DHT22;8283;48.504;13.734;2023-04-01T19:59:17;14.60;64.80
16347;DHT22;8283;48.504;13.734;2023-04-01T20:04:53;14.50;65.30
16347;DHT22;8283;48.504;13.734;2023-04-01T20:07:52;14.50;65.30
16347;DHT22;8283;48.504;13.734;2023-04-01T20:10:46;14.50;66.50
16347;DHT22;8283;48.504;13.734;2023-04-01T20:16:53;14.50;67.10
16347;DHT22;8283;48.504;13.734;2023-04-01T20:28:21;14.50;66.30
16347;DHT22;8283;48.504;13.734;2023-04-01T20:34:20;14.50;66.50
16347;DHT22;8283;48.504;13.734;2023-04-01T20:43:33;14.50;65.70
16347;DHT22;8283;48.504;13.734;2023-04-01T20:46:23;14.50;66.50
16347;DHT22;8283;48.504;13.734;2023-04-01T20:49:33;14.50;66.10
16347;DHT22;8283;48.504;13.734;2023-04-01T20:52:41;14.50;67.10
16347;DHT22;8283;48.504;13.734;2023-04-01T21:11:01;14.40;66.50
16347;DHT22;8283;48.504;13.734;2023-04-01T21:16:53;14.30;67.80
16347;DHT22;8283;48.504;13.734;2023-04-01T21:19:52;14.30;66.10
16347;DHT22;8283;48.504;13.734;2023-04-01T21:22:45;14.40;66.90
16347;DHT22;8283;48.504;13.734;2023-04-01T21:26:08;14.30;66.60
16347;DHT22;8283;48.504;13.734;2023-04-01T21:50:46;14.30;67.50
16347;DHT22;8283;48.504;13.734;2023-04-01T22:17:53;14.10;67.50
16347;DHT22;8283;48.504;13.734;2023-04-01T22:20:44;14.10;68.20
16347;DHT22;8283;48.504;13.734;2023-04-01T22:29:31;14.10;67.10
16347;DHT22;8283;48.504;13.734;2023-04-01T22:32:22;14.10;67.50
16347;DHT22;8283;48.504;13.734;2023-04-01T22:50:14;14.10;67.30
16347;DHT22;8283;48.504;13.734;2023-04-01T22:53:43;14.00;67.40
16347;DHT22;8283;48.504;13.734;2023-04-01T22:56:37;14.00;68.10
16347;DHT22;8283;48.504;13.734;2023-04-01T23:02:32;14.10;67.80
16347;DHT22;8283;48.504;13.734;2023-04-01T23:05:18;14.10;67.20
16347;DHT22;8283;48.504;13.734;2023-04-01T23:11:11;14.10;67.10
16347;DHT22;8283;48.504;13.734;2023-04-01T23:20:41;14.10;68.30
16347;DHT22;8283;48.504;13.734;2023-04-01T23:23:41;14.10;67.80
16347;DHT22;8283;48.504;13.734;2023-04-01T23:33:26;14.10;67.60
16347;DHT22;8283;48.504;13.734;2023-04-01T23:36:13;14.10;67.10
16347;DHT22;8283;48.504;13.734;2023-04-01T23:39:03;14.10;67.30
16347;DHT22;8283;48.504;13.734;2023-04-01T23:41:50;14.10;67.40
16347;DHT22;8283;48.504;13.734;2023-04-01T23:44:36;14.10;67.30
16347;DHT22;8283;48.504;13.734;2023-04-01T23:47:30;14.10;67.20
16347;DHT22;8283;48.504;13.734;2023-04-01T23:50:23;14.10;67.50
16347;DHT22;8283;48.504;13.734;2023-04-01T23:53:23;14.10;68.10
16347;DHT22;8283;48.504;13.734;2023-04-01T23:56:08;14.10;68.00
16347;DHT22;8283;48.504;13.734;2023-04-01T23:58:53;14.10;67.30
